Terminal Aerodrome Forecast
Issued by NWS

Home | Current Version | Previous Version | Text Only | Print | Product List | Glossary On
Versions: 1 2 3 4 5 6 7 8 9 10 11 12 13 14 15 16 17 18 19 20 21 22 23 24 25 26 27 28 29 30 31 32 33 34 35 36 37 38 39 40 41 42 43 44 45 46 47 48 49 50
747
FTUS46 KEKA 202343
TAFACV
TAF
KACV 202343Z 2100/2124 30009KT P6SM VCSH SCT060 BKN100
      TEMPO 2103/2106 6SM -SHRA BKN020
     FM210800 33003KT 2SM BR SCT005 BKN015
     FM211600 06003KT 6SM BR SCT015 OVC050
     FM211800 31008KT P6SM SCT050 BKN250=

USA.gov is the U.S. government's official web portal to all federal, state and local government web resources and services.